Kezdőlap
METAR-TAF:

METAR-TAF

Repülőterek :

Colby, Kansas, Amerikai Egyesült Államok

földrajzi szélesség: 39-25-39N, földrajzi hosszúság: 101-02-48W, magasság: 971 m

Jelenlegi meteorológiai megfigyelések

A jelentés 33 perccel ezelõtt készült, 04:35 UTC
Déli szél 5 kt
Hőmérséklet 24°C
Páratartalom 44%
Légköri nyomás 1013 hPa
Látótávolság: 16.1 km
Derült ég

METAR: KCBK 130435Z AUTO 19005KT 10SM CLR 24/11 A2990 RMK AO2 T02450113

Idő: 00:08 (05:08 UTC)


TAF: hiányzik

Meteorológiai megfigyelések és előrejelzések több, mint 4000 repülőtéren (METAR és TAF jelentéseket).

A térképen piros és sárga pontok jelzik az elérhető meteorológiai állomásokat.

Mozgassa az egeret a pont fölött, hogy megjelenjen az állomás neve.

Azután kattintson az időjárási megfigyelések és előrejelzések megtekintéséhez.

A térkép megváltoztatása: kattintson a fekete keresztel jelölt zöld gombra ráközelítéshez, a vonallal jelölt zöld gombra távolításhoz, vagy a zöld nyilakra a szomszédos térképek eléréséhez.


METAR-TAF: